createdAt,value
2019-03-22T00:00:04.180Z,101532.95
2019-03-22T00:04:14.196Z,101527.66
2019-03-22T00:08:22.998Z,101528.11
2019-03-22T00:12:31.606Z,101527.63
2019-03-22T00:16:39.849Z,101523.72
2019-03-22T00:20:49.487Z,101517.30
2019-03-22T00:24:58.339Z,101520.36
2019-03-22T00:29:06.560Z,101510.38
2019-03-22T00:33:15.749Z,101511.07
2019-03-22T00:37:23.916Z,101511.91
2019-03-22T00:41:32.339Z,101510.56
2019-03-22T00:45:40.754Z,101507.94
2019-03-22T00:49:48.986Z,101508.34
2019-03-22T00:53:57.703Z,101496.69
2019-03-22T00:58:06.259Z,101499.69
2019-03-22T01:02:14.759Z,101502.49
2019-03-22T01:06:23.688Z,101488.16
2019-03-22T01:10:32.941Z,101488.46
2019-03-22T01:14:41.775Z,101488.01
2019-03-22T01:18:50.938Z,101478.70
2019-03-22T01:22:59.662Z,101477.48
2019-03-22T01:27:07.968Z,101477.89
2019-03-22T01:31:16.924Z,101468.38
2019-03-22T01:35:25.340Z,101462.23
2019-03-22T01:39:33.648Z,101459.41
2019-03-22T01:43:42.813Z,101456.65
2019-03-22T01:47:51.024Z,101455.00
2019-03-22T01:51:59.838Z,101456.77
2019-03-22T01:56:08.594Z,101456.03
2019-03-22T02:00:17.773Z,101457.22
2019-03-22T02:04:26.555Z,101452.97
2019-03-22T02:08:35.079Z,101451.78
2019-03-22T02:12:43.400Z,101460.03
2019-03-22T02:16:51.841Z,101455.64
2019-03-22T02:21:00.781Z,101455.98
2019-03-22T02:25:09.610Z,101456.44
2019-03-22T02:29:18.330Z,101462.84
2019-03-22T02:33:27.529Z,101460.53
2019-03-22T02:37:35.892Z,101463.20
2019-03-22T02:41:45.157Z,101452.48
2019-03-22T02:45:53.272Z,101457.99
2019-03-22T02:50:11.691Z,101447.71
2019-03-22T02:54:12.069Z,101456.30
2019-03-22T02:58:21.443Z,101458.41
2019-03-22T03:02:30.850Z,101457.88
2019-03-22T03:06:39.722Z,101453.95
2019-03-22T03:10:47.998Z,101455.27
2019-03-22T03:14:56.642Z,101448.77
2019-03-22T03:19:05.263Z,101447.33
2019-03-22T03:23:13.592Z,101448.55
2019-03-22T03:27:22.465Z,101454.94
2019-03-22T03:31:31.172Z,101453.99
2019-03-22T03:35:39.594Z,101449.52
2019-03-22T03:39:48.366Z,101447.41
2019-03-22T03:43:57.341Z,101448.47
2019-03-22T03:48:07.597Z,101444.31
2019-03-22T03:52:16.140Z,101443.25
2019-03-22T03:56:24.383Z,101457.35
2019-03-22T04:00:33.407Z,101459.47
2019-03-22T04:04:41.542Z,101459.70
2019-03-22T04:08:49.764Z,101460.15
2019-03-22T04:12:58.870Z,101465.74
2019-03-22T04:17:07.414Z,101463.23
2019-03-22T04:21:15.733Z,101465.04
2019-03-22T04:25:24.510Z,101469.96
2019-03-22T04:29:32.680Z,101470.07
2019-03-22T04:33:41.108Z,101477.27
2019-03-22T04:37:49.942Z,101476.36
2019-03-22T04:41:58.167Z,101476.06
2019-03-22T04:46:07.993Z,101476.97
2019-03-22T04:50:17.348Z,101477.16
2019-03-22T04:54:27.980Z,101478.86
2019-03-22T04:58:38.324Z,101477.98
2019-03-22T05:02:48.564Z,101475.73
2019-03-22T05:06:58.521Z,101470.03
2019-03-22T05:11:09.639Z,101466.72
2019-03-22T05:15:20.198Z,101469.66
2019-03-22T05:19:31.497Z,101468.47
2019-03-22T05:23:41.041Z,101471.79
2019-03-22T05:27:51.377Z,101470.90
2019-03-22T05:32:06.112Z,101477.48
2019-03-22T05:36:14.310Z,101483.84
2019-03-22T05:40:22.635Z,101479.92
2019-03-22T05:44:31.360Z,101478.61
2019-03-22T05:48:39.781Z,101482.25
2019-03-22T05:52:48.626Z,101485.56
2019-03-22T05:56:56.942Z,101486.95
2019-03-22T06:01:06.087Z,101486.41
2019-03-22T06:05:14.900Z,101486.57
2019-03-22T06:09:23.147Z,101484.95
2019-03-22T06:13:32.072Z,101469.75
2019-03-22T06:17:51.150Z,101470.47
2019-03-22T06:21:51.275Z,101475.84
2019-03-22T06:26:00.111Z,101477.48
2019-03-22T06:30:10.899Z,101465.84
2019-03-22T06:34:19.306Z,101467.83
2019-03-22T06:38:28.166Z,101467.17
2019-03-22T06:42:36.766Z,101463.17
2019-03-22T06:46:45.203Z,101461.73
2019-03-22T06:50:53.526Z,101459.26
2019-03-22T06:55:03.073Z,101463.20
2019-03-22T06:59:11.809Z,101461.04
2019-03-22T07:03:20.618Z,101456.95
2019-03-22T07:07:28.934Z,101455.14
2019-03-22T07:11:37.479Z,101457.15
2019-03-22T07:15:47.054Z,101456.17
2019-03-22T07:19:55.361Z,101453.83
2019-03-22T07:24:04.408Z,101455.84
2019-03-22T07:28:13.237Z,101449.90
2019-03-22T07:32:21.562Z,101444.32
2019-03-22T07:36:30.510Z,101442.98
2019-03-22T07:40:38.718Z,101435.92
2019-03-22T07:44:47.032Z,101435.23
2019-03-22T07:48:56.184Z,101427.78
2019-03-22T07:53:04.491Z,101427.45
2019-03-22T07:57:13.528Z,101419.22
2019-03-22T08:01:22.374Z,101419.65
2019-03-22T08:05:31.107Z,101411.28
2019-03-22T08:09:39.814Z,101408.74
2019-03-22T08:13:48.458Z,101402.84
2019-03-22T08:17:57.244Z,101404.28
2019-03-22T08:22:06.123Z,101408.91
2019-03-22T08:26:14.894Z,101394.98
2019-03-22T08:30:23.192Z,101394.66
2019-03-22T08:34:31.758Z,101395.95
2019-03-22T08:38:40.154Z,101391.28
2019-03-22T08:42:48.673Z,101386.48
2019-03-22T08:46:57.539Z,101382.00
2019-03-22T08:51:05.923Z,101381.22
2019-03-22T08:55:14.535Z,101355.49
2019-03-22T08:59:22.772Z,101355.49
2019-03-22T09:03:31.112Z,101353.45
2019-03-22T09:07:39.998Z,101356.61
2019-03-22T09:11:48.752Z,101354.45
2019-03-22T09:15:56.983Z,101356.91
2019-03-22T09:20:06.317Z,101354.76
2019-03-22T09:24:15.046Z,101350.90
2019-03-22T09:28:23.298Z,101343.55
2019-03-22T09:32:31.708Z,101336.95
2019-03-22T09:36:40.167Z,101332.78
2019-03-22T09:40:48.395Z,101338.33
2019-03-22T09:44:56.972Z,101332.58
2019-03-22T09:49:05.204Z,101330.05
2019-03-22T09:53:13.714Z,101331.02
2019-03-22T09:57:22.489Z,101323.77
2019-03-22T10:01:30.682Z,101311.97
2019-03-22T10:05:39.413Z,101312.18
2019-03-22T10:09:47.650Z,101311.11
2019-03-22T10:13:56.561Z,101306.47
2019-03-22T10:18:05.828Z,101313.96
2019-03-22T10:22:13.942Z,101298.06
2019-03-22T10:26:22.697Z,101293.35
2019-03-22T10:30:31.518Z,101287.37
2019-03-22T10:34:39.984Z,101283.91
2019-03-22T10:38:50.411Z,101273.22
2019-03-22T10:42:58.624Z,101277.39
2019-03-22T10:47:06.831Z,101276.36
2019-03-22T10:51:15.655Z,101261.51
2019-03-22T10:55:30.348Z,101256.42
2019-03-22T10:59:34.140Z,101248.78
2019-03-22T11:03:42.931Z,101242.36
2019-03-22T11:07:51.299Z,101231.02
2019-03-22T11:12:00.120Z,101221.07
2019-03-22T11:16:08.765Z,101224.23
2019-03-22T11:20:17.370Z,101211.89
2019-03-22T11:24:25.716Z,101197.62
2019-03-22T11:28:34.950Z,101194.30
2019-03-22T11:32:43.291Z,101190.42
2019-03-22T11:36:51.937Z,101175.09
2019-03-22T11:41:00.158Z,101168.84
2019-03-22T11:45:11.099Z,101169.23
2019-03-22T11:49:19.540Z,101169.00
2019-03-22T11:53:27.755Z,101163.58
2019-03-22T11:57:38.316Z,101146.84
2019-03-22T12:01:46.950Z,101155.01
2019-03-22T12:05:55.280Z,101145.10
2019-03-22T12:10:04.374Z,101147.86
2019-03-22T12:14:12.855Z,101145.84
2019-03-22T12:18:21.168Z,101140.16
2019-03-22T12:22:29.896Z,101133.37
2019-03-22T12:26:38.427Z,101124.03
2019-03-22T12:30:46.642Z,101120.03
2019-03-22T12:34:55.173Z,101121.27
2019-03-22T12:39:04.183Z,101119.94
2019-03-22T12:43:12.949Z,101118.58
2019-03-22T12:47:22.081Z,101104.90
2019-03-22T12:51:30.401Z,101103.30
2019-03-22T12:55:38.829Z,101094.50
2019-03-22T12:59:47.354Z,101091.20
2019-03-22T13:03:55.576Z,101090.23
2019-03-22T13:08:04.601Z,101090.84
2019-03-22T13:12:13.441Z,101082.44
2019-03-22T13:16:21.779Z,101080.78
2019-03-22T13:20:30.692Z,101072.77
2019-03-22T13:24:38.920Z,101065.83
2019-03-22T13:28:47.865Z,101061.55
2019-03-22T13:32:56.791Z,101071.91
2019-03-22T13:37:05.020Z,101048.07
2019-03-22T13:41:13.552Z,101040.42
2019-03-22T13:45:22.378Z,101051.11
2019-03-22T13:49:30.699Z,101048.31
2019-03-22T13:53:39.345Z,101032.61
2019-03-22T13:57:47.549Z,101038.71
2019-03-22T14:01:56.403Z,101033.16
2019-03-22T14:06:05.733Z,101024.42
2019-03-22T14:10:22.232Z,101024.92
2019-03-22T14:14:31.083Z,101036.50
2019-03-22T14:18:39.817Z,101044.03
2019-03-22T14:22:48.237Z,101051.04
2019-03-22T14:26:56.673Z,101039.43
2019-03-22T14:31:05.997Z,101039.39
2019-03-22T14:35:14.329Z,101050.78
2019-03-22T14:39:22.771Z,101047.48
2019-03-22T14:43:31.601Z,101042.12
2019-03-22T14:47:39.712Z,101034.50
2019-03-22T14:51:48.446Z,101033.35
2019-03-22T14:55:57.071Z,101047.02
2019-03-22T15:00:05.705Z,101038.75
2019-03-22T15:04:14.634Z,101038.44
2019-03-22T15:08:23.138Z,101038.58
2019-03-22T15:12:31.700Z,101041.97
2019-03-22T15:17:17.529Z,101038.31
2019-03-22T15:21:44.772Z,101036.91
2019-03-22T15:26:11.224Z,101041.02
2019-03-22T15:30:56.604Z,101052.47
2019-03-22T15:35:42.438Z,101052.36
2019-03-22T15:40:03.916Z,101048.76
2019-03-22T15:44:12.521Z,101049.44
2019-03-22T15:48:21.393Z,101050.65
2019-03-22T15:52:30.113Z,101059.61
2019-03-22T15:56:38.421Z,101059.39
2019-03-22T16:00:47.173Z,101049.73
2019-03-22T16:04:55.401Z,101058.93
2019-03-22T16:09:05.173Z,101057.08
2019-03-22T16:13:13.680Z,101070.70
2019-03-22T16:17:21.895Z,101065.17
2019-03-22T16:21:30.835Z,101068.33
2019-03-22T16:25:39.666Z,101064.00
2019-03-22T16:29:47.879Z,101070.08
2019-03-22T16:33:57.105Z,101071.28
2019-03-22T16:38:05.639Z,101064.35
2019-03-22T16:42:13.990Z,101066.56
2019-03-22T16:46:22.920Z,101068.12
2019-03-22T16:50:31.843Z,101067.30
2019-03-22T16:54:40.703Z,101062.94
2019-03-22T16:58:49.718Z,101065.13
2019-03-22T17:02:57.950Z,101061.61
2019-03-22T17:07:07.195Z,101073.47
2019-03-22T17:11:15.421Z,101063.82
2019-03-22T17:15:24.155Z,101077.36
2019-03-22T17:19:32.726Z,101084.37
2019-03-22T17:23:40.888Z,101070.92
2019-03-22T17:27:49.735Z,101073.30
2019-03-22T17:31:58.651Z,101065.29
2019-03-22T17:36:07.068Z,101070.75
2019-03-22T17:40:15.813Z,101069.50
2019-03-22T17:44:24.365Z,101067.05
2019-03-22T17:48:32.471Z,101065.80
2019-03-22T17:52:41.076Z,101059.52
2019-03-22T17:56:49.437Z,101068.36
2019-03-22T18:00:58.415Z,101070.27
2019-03-22T18:05:08.394Z,101068.09
2019-03-22T18:09:16.625Z,101058.83
2019-03-22T18:13:25.581Z,101068.20
2019-03-22T18:17:34.096Z,101074.51
2019-03-22T18:21:42.337Z,101076.20
2019-03-22T18:25:51.067Z,101074.44
2019-03-22T18:29:59.368Z,101075.09
2019-03-22T18:34:08.538Z,101068.47
2019-03-22T18:38:17.324Z,101076.34
2019-03-22T18:42:25.576Z,101074.95
2019-03-22T18:46:34.290Z,101063.91
2019-03-22T18:50:43.132Z,101062.17
2019-03-22T18:54:51.956Z,101056.73
2019-03-22T18:59:00.397Z,101056.48
2019-03-22T19:03:08.623Z,101059.45
2019-03-22T19:07:17.232Z,101054.81
2019-03-22T19:11:25.947Z,101048.22
2019-03-22T19:15:34.303Z,101050.09
2019-03-22T19:19:42.714Z,101038.06
2019-03-22T19:23:50.934Z,101046.09
2019-03-22T19:27:59.559Z,101040.25
2019-03-22T19:32:13.423Z,101041.30
2019-03-22T19:36:18.053Z,101043.42
2019-03-22T19:40:26.636Z,101041.99
2019-03-22T19:44:35.413Z,101037.77
2019-03-22T19:48:43.732Z,101045.33
2019-03-22T19:52:52.261Z,101034.44
2019-03-22T19:57:01.165Z,101027.59
2019-03-22T20:01:09.615Z,101035.75
2019-03-22T20:05:32.135Z,101028.41
2019-03-22T20:09:40.553Z,101030.37
2019-03-22T20:13:48.787Z,101022.41
2019-03-22T20:17:57.330Z,101025.30
2019-03-22T20:22:06.084Z,101027.11
2019-03-22T20:26:14.406Z,101022.98
2019-03-22T20:30:23.541Z,101018.48
2019-03-22T20:34:31.837Z,101022.12
2019-03-22T20:38:41.103Z,101012.52
2019-03-22T20:42:50.064Z,101018.41
2019-03-22T20:46:58.264Z,101007.06
2019-03-22T20:51:06.992Z,101010.08
2019-03-22T20:55:17.209Z,100999.80
2019-03-22T20:59:25.373Z,101006.11
2019-03-22T21:03:34.093Z,101001.83
2019-03-22T21:07:42.421Z,100998.47
2019-03-22T21:11:51.194Z,100994.72
2019-03-22T21:15:59.698Z,100983.77
2019-03-22T21:20:08.650Z,100984.88
2019-03-22T21:24:17.654Z,100974.59
2019-03-22T21:28:26.574Z,100975.43
2019-03-22T21:32:44.740Z,100974.34
2019-03-22T21:36:45.175Z,100976.14
2019-03-22T21:40:53.925Z,100975.53
2019-03-22T21:45:02.125Z,100971.55
2019-03-22T21:49:11.064Z,100973.52
2019-03-22T21:53:19.411Z,100972.55
2019-03-22T21:57:27.835Z,100975.60
2019-03-22T22:01:37.848Z,100973.70
2019-03-22T22:05:48.090Z,100975.71
2019-03-22T22:09:56.768Z,100971.47
2019-03-22T22:14:05.594Z,100969.81
2019-03-22T22:18:14.132Z,100975.39
2019-03-22T22:22:22.555Z,100977.55
2019-03-22T22:26:31.503Z,100967.41
2019-03-22T22:30:39.711Z,100967.52
2019-03-22T22:34:48.043Z,100968.95
2019-03-22T22:38:56.881Z,100965.33
2019-03-22T22:43:05.125Z,100971.71
2019-03-22T22:47:13.710Z,100973.30
2019-03-22T22:51:22.283Z,100968.23
2019-03-22T22:55:30.457Z,100963.99
2019-03-22T22:59:39.748Z,100965.64
2019-03-22T23:03:47.820Z,100972.44
2019-03-22T23:07:56.049Z,100969.31
2019-03-22T23:12:04.767Z,100971.47
2019-03-22T23:16:13.304Z,100972.75
2019-03-22T23:20:22.178Z,100970.95
2019-03-22T23:24:30.560Z,100964.01
2019-03-22T23:28:38.996Z,100960.69
2019-03-22T23:32:47.924Z,100956.45
2019-03-22T23:36:56.752Z,100961.70
2019-03-22T23:41:05.331Z,100953.58
2019-03-22T23:45:14.632Z,100949.23
2019-03-22T23:49:23.349Z,100946.23
2019-03-22T23:53:31.761Z,100939.22
2019-03-22T23:57:40.016Z,100947.55
